NC91 weather

Vidant Health Heliport
Greenville, North Carolina, United States

Public forecast

Using degrees Fahrenheit for public forecast. Weather courtesy of forecast.io.

METAR (pilot weather report)

Closest report is Pitt Greenville Airport, 1.9 nm (3.5 km) NE. Retrieved 2019/06/15 22:30 UTC (0 seconds ago):

KPGV 152230Z AUTO 20009KT 10SM CLR 28/13 A3013 RMK AO2

TAF (pilot weather forecast)

Closest forecast is Pitt Greenville Airport, 1.9 nm (3.5 km) NE. Retrieved 2019/06/15 18:22 UTC (4 hours ago):

TAF KPGV 151720Z 1518/1618 19007G13KT P6SM FEW250 FM160100 18003KT P6SM FEW250 FM161400 22008G13KT P6SM FEW250 AMD LTD TO CLD VIS AND WIND